sensor_id;sensor_type;location;lat;lon;timestamp;pressure;altitude;pressure_sealevel;temperature;humidity
43621;BME280;29213;50.770;7.298;2023-05-22T00:01:32;100545.34;;;14.42;62.73
43621;BME280;29213;50.770;7.298;2023-05-22T00:03:57;100593.84;;;14.69;62.50
43621;BME280;29213;50.770;7.298;2023-05-22T00:06:23;100563.16;;;14.50;62.51
43621;BME280;29213;50.770;7.298;2023-05-22T00:08:48;100625.41;;;14.89;62.69
43621;BME280;29213;50.770;7.298;2023-05-22T00:11:14;100588.88;;;14.66;62.53
43621;BME280;29213;50.770;7.298;2023-05-22T00:13:39;100601.34;;;14.74;62.69
43621;BME280;29213;50.770;7.298;2023-05-22T00:16:06;100605.22;;;14.71;62.76
43621;BME280;29213;50.770;7.298;2023-05-22T00:18:31;100621.56;;;14.76;62.60
43621;BME280;29213;50.770;7.298;2023-05-22T00:20:57;100613.72;;;14.75;62.95
43621;BME280;29213;50.770;7.298;2023-05-22T00:23:23;100572.13;;;14.42;62.61
43621;BME280;29213;50.770;7.298;2023-05-22T00:25:49;100569.00;;;14.38;62.63
43621;BME280;29213;50.770;7.298;2023-05-22T00:28:15;100481.03;;;13.83;62.66
43621;BME280;29213;50.770;7.298;2023-05-22T00:30:40;100538.78;;;14.23;62.48
43621;BME280;29213;50.770;7.298;2023-05-22T00:33:06;100533.53;;;14.14;62.64
43621;BME280;29213;50.770;7.298;2023-05-22T00:35:32;100573.13;;;14.34;62.82
43621;BME280;29213;50.770;7.298;2023-05-22T00:37:57;100572.28;;;14.34;62.85
43621;BME280;29213;50.770;7.298;2023-05-22T00:40:22;100470.34;;;13.68;62.66
43621;BME280;29213;50.770;7.298;2023-05-22T00:42:48;100599.66;;;14.51;62.80
43621;BME280;29213;50.770;7.298;2023-05-22T00:45:14;100591.47;;;14.37;62.72
43621;BME280;29213;50.770;7.298;2023-05-22T00:47:40;100489.00;;;13.76;62.58
43621;BME280;29213;50.770;7.298;2023-05-22T00:50:06;100583.47;;;14.22;62.72
43621;BME280;29213;50.770;7.298;2023-05-22T00:52:37;100608.19;;;14.39;62.76
43621;BME280;29213;50.770;7.298;2023-05-22T00:55:04;100610.22;;;14.37;62.72
43621;BME280;29213;50.770;7.298;2023-05-22T00:57:31;100506.44;;;13.72;62.85
43621;BME280;29213;50.770;7.298;2023-05-22T00:59:59;100552.66;;;13.96;62.53
43621;BME280;29213;50.770;7.298;2023-05-22T01:02:24;100530.69;;;13.86;62.63
43621;BME280;29213;50.770;7.298;2023-05-22T01:04:50;100561.50;;;13.97;62.63
43621;BME280;29213;50.770;7.298;2023-05-22T01:07:17;100595.13;;;14.14;62.69
43621;BME280;29213;50.770;7.298;2023-05-22T01:09:43;100570.28;;;13.90;62.64
43621;BME280;29213;50.770;7.298;2023-05-22T01:23:20;100600.09;;;14.02;63.06
43621;BME280;29213;50.770;7.298;2023-05-22T01:26:30;100543.09;;;13.57;62.97
43621;BME280;29213;50.770;7.298;2023-05-22T01:29:14;100606.19;;;13.96;62.97
43621;BME280;29213;50.770;7.298;2023-05-22T01:31:49;100611.94;;;13.93;63.02
43621;BME280;29213;50.770;7.298;2023-05-22T01:34:17;100602.78;;;13.87;63.16
43621;BME280;29213;50.770;7.298;2023-05-22T01:36:45;100600.94;;;13.88;63.35
43621;BME280;29213;50.770;7.298;2023-05-22T01:39:13;100563.69;;;13.56;63.33
43621;BME280;29213;50.770;7.298;2023-05-22T01:41:39;100610.19;;;13.85;63.23
43621;BME280;29213;50.770;7.298;2023-05-22T01:44:04;100539.78;;;13.40;63.23
43621;BME280;29213;50.770;7.298;2023-05-22T01:46:30;100601.13;;;13.71;63.22
43621;BME280;29213;50.770;7.298;2023-05-22T01:48:56;100620.78;;;13.79;63.15
43621;BME280;29213;50.770;7.298;2023-05-22T01:51:32;100604.09;;;13.76;63.41
43621;BME280;29213;50.770;7.298;2023-05-22T01:54:08;100554.53;;;13.35;63.26
43621;BME280;29213;50.770;7.298;2023-05-22T01:59:20;100550.09;;;13.28;63.45
43621;BME280;29213;50.770;7.298;2023-05-22T02:01:49;100603.53;;;13.66;63.81
43621;BME280;29213;50.770;7.298;2023-05-22T02:04:18;100535.78;;;13.20;63.31
43621;BME280;29213;50.770;7.298;2023-05-22T02:06:44;100577.03;;;13.41;63.36
43621;BME280;29213;50.770;7.298;2023-05-22T02:09:11;100537.72;;;13.12;63.34
43621;BME280;29213;50.770;7.298;2023-05-22T02:11:39;100543.88;;;13.12;63.25
43621;BME280;29213;50.770;7.298;2023-05-22T02:14:05;100534.94;;;13.05;63.35
43621;BME280;29213;50.770;7.298;2023-05-22T02:16:33;100612.00;;;13.55;63.41
43621;BME280;29213;50.770;7.298;2023-05-22T02:19:00;100611.38;;;13.53;63.50
43621;BME280;29213;50.770;7.298;2023-05-22T02:21:34;100611.56;;;13.51;63.41
43621;BME280;29213;50.770;7.298;2023-05-22T02:24:01;100600.19;;;13.49;63.39
43621;BME280;29213;50.770;7.298;2023-05-22T02:26:27;100535.25;;;13.02;63.34
43621;BME280;29213;50.770;7.298;2023-05-22T02:28:52;100568.16;;;13.26;63.55
43621;BME280;29213;50.770;7.298;2023-05-22T02:31:17;100575.63;;;13.30;63.59
43621;BME280;29213;50.770;7.298;2023-05-22T02:33:43;100537.59;;;13.05;63.43
43621;BME280;29213;50.770;7.298;2023-05-22T02:36:09;100594.75;;;13.42;63.37
43621;BME280;29213;50.770;7.298;2023-05-22T02:38:37;100591.69;;;13.30;63.39
43621;BME280;29213;50.770;7.298;2023-05-22T02:41:03;100531.66;;;12.94;63.27
43621;BME280;29213;50.770;7.298;2023-05-22T02:43:28;100593.00;;;13.34;62.95
43621;BME280;29213;50.770;7.298;2023-05-22T02:45:53;100561.97;;;13.10;63.10
43621;BME280;29213;50.770;7.298;2023-05-22T02:48:19;100558.16;;;13.04;63.18
43621;BME280;29213;50.770;7.298;2023-05-22T02:50:44;100574.03;;;13.06;63.28
43621;BME280;29213;50.770;7.298;2023-05-22T02:53:12;100530.78;;;12.79;63.26
43621;BME280;29213;50.770;7.298;2023-05-22T02:55:38;100493.94;;;12.51;63.52
43621;BME280;29213;50.770;7.298;2023-05-22T02:58:05;100598.19;;;13.13;63.45
43621;BME280;29213;50.770;7.298;2023-05-22T03:00:30;100545.88;;;12.72;63.60
43621;BME280;29213;50.770;7.298;2023-05-22T03:02:56;100483.19;;;12.36;63.54
43621;BME280;29213;50.770;7.298;2023-05-22T03:05:21;100590.91;;;13.06;63.72
43621;BME280;29213;50.770;7.298;2023-05-22T03:07:47;100582.16;;;12.89;63.73
43621;BME280;29213;50.770;7.298;2023-05-22T03:10:13;100512.72;;;12.42;63.89
43621;BME280;29213;50.770;7.298;2023-05-22T03:12:38;100497.22;;;12.38;63.81
43621;BME280;29213;50.770;7.298;2023-05-22T03:15:04;100489.44;;;12.28;63.68
43621;BME280;29213;50.770;7.298;2023-05-22T03:17:29;100500.72;;;12.38;63.80
43621;BME280;29213;50.770;7.298;2023-05-22T03:19:55;100542.25;;;12.64;63.87
43621;BME280;29213;50.770;7.298;2023-05-22T03:22:20;100444.94;;;11.97;63.84
43621;BME280;29213;50.770;7.298;2023-05-22T03:24:47;100567.72;;;12.75;63.69
43621;BME280;29213;50.770;7.298;2023-05-22T03:27:14;100599.19;;;12.88;63.76
43621;BME280;29213;50.770;7.298;2023-05-22T03:29:41;100485.22;;;12.10;63.92
43621;BME280;29213;50.770;7.298;2023-05-22T03:32:06;100594.19;;;12.85;63.85
43621;BME280;29213;50.770;7.298;2023-05-22T03:34:32;100435.81;;;11.83;63.81
43621;BME280;29213;50.770;7.298;2023-05-22T03:36:57;100476.38;;;12.10;64.05
43621;BME280;29213;50.770;7.298;2023-05-22T03:39:23;100570.00;;;12.63;64.21
43621;BME280;29213;50.770;7.298;2023-05-22T03:41:48;100517.91;;;12.36;64.06
43621;BME280;29213;50.770;7.298;2023-05-22T03:44:13;100575.81;;;12.67;64.10
43621;BME280;29213;50.770;7.298;2023-05-22T03:46:39;100531.44;;;12.34;63.87
43621;BME280;29213;50.770;7.298;2023-05-22T03:49:04;100531.44;;;12.34;63.99
43621;BME280;29213;50.770;7.298;2023-05-22T03:51:30;100425.22;;;11.66;63.76
43621;BME280;29213;50.770;7.298;2023-05-22T03:53:56;100467.31;;;11.87;63.88
43621;BME280;29213;50.770;7.298;2023-05-22T03:56:21;100549.97;;;12.36;63.91
43621;BME280;29213;50.770;7.298;2023-05-22T03:58:46;100515.03;;;12.14;64.14
43621;BME280;29213;50.770;7.298;2023-05-22T04:01:12;100578.06;;;12.55;63.78
43621;BME280;29213;50.770;7.298;2023-05-22T04:03:37;100592.00;;;12.65;63.97
43621;BME280;29213;50.770;7.298;2023-05-22T04:06:03;100535.84;;;12.27;64.08
43621;BME280;29213;50.770;7.298;2023-05-22T04:08:29;100577.59;;;12.51;64.03
43621;BME280;29213;50.770;7.298;2023-05-22T04:10:55;100560.94;;;12.41;64.23
43621;BME280;29213;50.770;7.298;2023-05-22T04:13:20;100553.47;;;12.36;64.28
43621;BME280;29213;50.770;7.298;2023-05-22T04:15:46;100507.44;;;12.02;64.32
43621;BME280;29213;50.770;7.298;2023-05-22T04:18:12;100518.13;;;12.02;64.19
43621;BME280;29213;50.770;7.298;2023-05-22T04:20:37;100612.91;;;12.62;64.40
43621;BME280;29213;50.770;7.298;2023-05-22T04:23:03;100586.13;;;12.47;64.25
43621;BME280;29213;50.770;7.298;2023-05-22T04:25:28;100558.06;;;12.19;64.43
43621;BME280;29213;50.770;7.298;2023-05-22T04:27:56;100628.28;;;12.60;64.39
43621;BME280;29213;50.770;7.298;2023-05-22T04:30:21;100617.59;;;12.60;64.31
43621;BME280;29213;50.770;7.298;2023-05-22T04:32:46;100499.00;;;11.82;64.30
43621;BME280;29213;50.770;7.298;2023-05-22T04:35:12;100612.31;;;12.51;64.52
43621;BME280;29213;50.770;7.298;2023-05-22T04:37:38;100543.78;;;12.12;64.32
43621;BME280;29213;50.770;7.298;2023-05-22T04:40:10;100619.28;;;12.61;64.54
43621;BME280;29213;50.770;7.298;2023-05-22T04:42:39;100609.16;;;12.48;64.45
43621;BME280;29213;50.770;7.298;2023-05-22T04:45:07;100535.31;;;12.00;64.53
43621;BME280;29213;50.770;7.298;2023-05-22T04:47:32;100571.91;;;12.23;64.56
43621;BME280;29213;50.770;7.298;2023-05-22T04:49:58;100639.81;;;12.60;64.51
43621;BME280;29213;50.770;7.298;2023-05-22T04:52:25;100564.81;;;12.07;64.62
43621;BME280;29213;50.770;7.298;2023-05-22T04:54:50;100606.22;;;12.34;64.74
43621;BME280;29213;50.770;7.298;2023-05-22T04:57:17;100610.22;;;12.38;64.76
43621;BME280;29213;50.770;7.298;2023-05-22T04:59:43;100478.59;;;11.58;64.59
43621;BME280;29213;50.770;7.298;2023-05-22T05:02:09;100640.28;;;12.64;64.65
43621;BME280;29213;50.770;7.298;2023-05-22T05:04:35;100585.91;;;12.25;64.82
43621;BME280;29213;50.770;7.298;2023-05-22T05:07:01;100635.78;;;12.64;64.83
43621;BME280;29213;50.770;7.298;2023-05-22T05:09:28;100641.75;;;12.66;64.85
43621;BME280;29213;50.770;7.298;2023-05-22T05:11:53;100644.28;;;12.68;65.00
43621;BME280;29213;50.770;7.298;2023-05-22T05:14:19;100628.28;;;12.60;64.93
43621;BME280;29213;50.770;7.298;2023-05-22T05:16:44;100542.13;;;12.02;64.74
43621;BME280;29213;50.770;7.298;2023-05-22T05:19:11;100644.91;;;12.70;64.82
43621;BME280;29213;50.770;7.298;2023-05-22T05:21:37;100527.66;;;11.97;64.80
43621;BME280;29213;50.770;7.298;2023-05-22T05:24:04;100606.81;;;12.45;65.04
43621;BME280;29213;50.770;7.298;2023-05-22T05:26:30;100492.56;;;11.76;65.14
43621;BME280;29213;50.770;7.298;2023-05-22T05:28:55;100618.44;;;12.60;65.24
43621;BME280;29213;50.770;7.298;2023-05-22T05:31:20;100436.16;;;11.48;65.03
43621;BME280;29213;50.770;7.298;2023-05-22T05:33:46;100588.97;;;12.45;65.30
43621;BME280;29213;50.770;7.298;2023-05-22T05:36:13;100601.09;;;12.56;65.21
43621;BME280;29213;50.770;7.298;2023-05-22T05:38:39;100591.41;;;12.55;65.49
43621;BME280;29213;50.770;7.298;2023-05-22T05:41:05;100493.81;;;11.89;65.55
43621;BME280;29213;50.770;7.298;2023-05-22T05:43:30;100577.91;;;12.48;65.63
43621;BME280;29213;50.770;7.298;2023-05-22T05:45:56;100397.84;;;11.41;65.67
43621;BME280;29213;50.770;7.298;2023-05-22T05:48:22;100574.38;;;12.56;65.98
43621;BME280;29213;50.770;7.298;2023-05-22T05:50:47;100586.03;;;12.63;65.95
43621;BME280;29213;50.770;7.298;2023-05-22T05:53:13;100660.88;;;13.10;65.96
43621;BME280;29213;50.770;7.298;2023-05-22T05:55:38;100555.66;;;12.56;65.82
43621;BME280;29213;50.770;7.298;2023-05-22T05:58:03;100658.13;;;13.18;66.04
43621;BME280;29213;50.770;7.298;2023-05-22T06:00:29;100461.13;;;11.95;66.06
43621;BME280;29213;50.770;7.298;2023-05-22T06:02:54;100640.34;;;13.11;66.04
43621;BME280;29213;50.770;7.298;2023-05-22T06:05:21;100661.88;;;13.32;66.06
43621;BME280;29213;50.770;7.298;2023-05-22T06:07:47;100593.97;;;12.95;66.27
43621;BME280;29213;50.770;7.298;2023-05-22T06:10:13;100595.78;;;13.03;66.32
43621;BME280;29213;50.770;7.298;2023-05-22T06:12:38;100567.84;;;12.82;66.02
43621;BME280;29213;50.770;7.298;2023-05-22T06:15:06;100664.50;;;13.56;66.04
43621;BME280;29213;50.770;7.298;2023-05-22T06:17:33;100670.16;;;13.61;66.08
43621;BME280;29213;50.770;7.298;2023-05-22T06:19:58;100666.75;;;13.67;67.07
43621;BME280;29213;50.770;7.298;2023-05-22T06:22:24;100665.38;;;13.71;67.23
43621;BME280;29213;50.770;7.298;2023-05-22T06:24:51;100631.75;;;13.54;67.02
43621;BME280;29213;50.770;7.298;2023-05-22T06:27:19;100636.28;;;13.53;67.57
43621;BME280;29213;50.770;7.298;2023-05-22T06:29:50;100492.72;;;12.77;67.32
43621;BME280;29213;50.770;7.298;2023-05-22T06:32:16;100665.84;;;13.90;67.53
43621;BME280;29213;50.770;7.298;2023-05-22T06:34:44;100533.09;;;13.05;67.45
43621;BME280;29213;50.770;7.298;2023-05-22T06:37:10;100617.75;;;13.67;67.78
43621;BME280;29213;50.770;7.298;2023-05-22T06:39:36;100649.22;;;13.95;68.01
43621;BME280;29213;50.770;7.298;2023-05-22T06:42:01;100618.28;;;13.77;68.15
43621;BME280;29213;50.770;7.298;2023-05-22T06:44:27;100643.31;;;13.99;68.19
43621;BME280;29213;50.770;7.298;2023-05-22T06:46:52;100616.34;;;13.86;67.95
43621;BME280;29213;50.770;7.298;2023-05-22T06:49:18;100616.00;;;13.89;68.54
43621;BME280;29213;50.770;7.298;2023-05-22T06:51:44;100606.38;;;13.80;69.52
43621;BME280;29213;50.770;7.298;2023-05-22T06:54:10;100665.75;;;14.28;69.38
43621;BME280;29213;50.770;7.298;2023-05-22T06:56:37;100701.59;;;14.42;69.58
43621;BME280;29213;50.770;7.298;2023-05-22T06:59:02;100617.84;;;14.03;70.15
43621;BME280;29213;50.770;7.298;2023-05-22T07:01:28;100646.47;;;14.18;69.63
43621;BME280;29213;50.770;7.298;2023-05-22T07:03:56;100620.88;;;14.00;69.37
43621;BME280;29213;50.770;7.298;2023-05-22T07:06:22;100606.28;;;14.03;69.63
43621;BME280;29213;50.770;7.298;2023-05-22T07:08:49;100556.09;;;13.75;69.16
43621;BME280;29213;50.770;7.298;2023-05-22T07:11:15;100549.91;;;13.74;68.83
43621;BME280;29213;50.770;7.298;2023-05-22T07:13:40;100697.88;;;14.80;68.63
43621;BME280;29213;50.770;7.298;2023-05-22T07:16:06;100658.66;;;14.58;69.00
43621;BME280;29213;50.770;7.298;2023-05-22T07:18:31;100643.94;;;14.47;68.76
43621;BME280;29213;50.770;7.298;2023-05-22T07:20:57;100707.66;;;14.88;69.04
43621;BME280;29213;50.770;7.298;2023-05-22T07:23:22;100513.28;;;13.75;68.72
43621;BME280;29213;50.770;7.298;2023-05-22T07:25:48;100626.81;;;14.48;69.01
43621;BME280;29213;50.770;7.298;2023-05-22T07:28:13;100686.03;;;14.90;68.82
43621;BME280;29213;50.770;7.298;2023-05-22T07:30:39;100683.94;;;14.85;68.55
43621;BME280;29213;50.770;7.298;2023-05-22T07:33:04;100692.50;;;14.95;68.46
43621;BME280;29213;50.770;7.298;2023-05-22T07:35:30;100712.28;;;15.09;68.49
43621;BME280;29213;50.770;7.298;2023-05-22T07:37:56;100633.34;;;14.60;68.48
43621;BME280;29213;50.770;7.298;2023-05-22T07:40:21;100556.88;;;14.21;67.98
43621;BME280;29213;50.770;7.298;2023-05-22T07:42:46;100629.34;;;14.71;67.85
43621;BME280;29213;50.770;7.298;2023-05-22T07:45:12;100648.06;;;14.86;68.15
43621;BME280;29213;50.770;7.298;2023-05-22T07:47:37;100698.34;;;15.21;68.05
43621;BME280;29213;50.770;7.298;2023-05-22T07:50:03;100679.06;;;15.11;67.75
43621;BME280;29213;50.770;7.298;2023-05-22T07:52:29;100609.75;;;14.70;67.79
43621;BME280;29213;50.770;7.298;2023-05-22T07:54:56;100705.03;;;15.32;67.84
43621;BME280;29213;50.770;7.298;2023-05-22T07:57:21;100655.09;;;15.09;67.78
43621;BME280;29213;50.770;7.298;2023-05-22T07:59:47;100573.94;;;14.56;67.78
43621;BME280;29213;50.770;7.298;2023-05-22T08:02:13;100668.38;;;15.17;67.78
43621;BME280;29213;50.770;7.298;2023-05-22T08:04:39;100675.53;;;15.32;67.51
43621;BME280;29213;50.770;7.298;2023-05-22T08:07:05;100698.56;;;15.48;67.70
43621;BME280;29213;50.770;7.298;2023-05-22T08:09:30;100725.13;;;15.65;67.26
43621;BME280;29213;50.770;7.298;2023-05-22T08:11:56;100662.88;;;15.26;67.33
43621;BME280;29213;50.770;7.298;2023-05-22T08:14:21;100673.72;;;15.39;67.21
43621;BME280;29213;50.770;7.298;2023-05-22T08:16:47;100690.31;;;15.49;67.30
43621;BME280;29213;50.770;7.298;2023-05-22T08:19:13;100583.28;;;14.82;67.10
43621;BME280;29213;50.770;7.298;2023-05-22T08:21:38;100653.03;;;15.33;67.17
43621;BME280;29213;50.770;7.298;2023-05-22T08:24:05;100634.84;;;15.28;66.77
43621;BME280;29213;50.770;7.298;2023-05-22T08:26:31;100665.13;;;15.50;66.85
43621;BME280;29213;50.770;7.298;2023-05-22T08:28:58;100597.38;;;15.13;66.54
43621;BME280;29213;50.770;7.298;2023-05-22T08:31:24;100683.94;;;15.79;66.71
43621;BME280;29213;50.770;7.298;2023-05-22T08:33:49;100649.72;;;15.59;66.34
43621;BME280;29213;50.770;7.298;2023-05-22T08:36:15;100704.19;;;16.10;66.02
43621;BME280;29213;50.770;7.298;2023-05-22T08:38:40;100664.59;;;15.90;66.19
43621;BME280;29213;50.770;7.298;2023-05-22T08:41:07;100712.56;;;16.29;65.60
43621;BME280;29213;50.770;7.298;2023-05-22T08:43:32;100704.69;;;16.27;65.38
43621;BME280;29213;50.770;7.298;2023-05-22T08:45:59;100695.81;;;16.34;65.65
43621;BME280;29213;50.770;7.298;2023-05-22T08:48:31;100623.91;;;15.94;65.59
43621;BME280;29213;50.770;7.298;2023-05-22T08:51:02;100670.00;;;16.33;65.25
43621;BME280;29213;50.770;7.298;2023-05-22T08:53:28;100656.50;;;16.26;64.63
43621;BME280;29213;50.770;7.298;2023-05-22T08:55:55;100716.63;;;16.67;64.80
43621;BME280;29213;50.770;7.298;2023-05-22T08:58:20;100629.00;;;16.17;64.46
43621;BME280;29213;50.770;7.298;2023-05-22T09:00:46;100686.88;;;16.68;64.15
43621;BME280;29213;50.770;7.298;2023-05-22T09:03:13;100663.28;;;16.70;63.38
43621;BME280;29213;50.770;7.298;2023-05-22T09:05:39;100684.06;;;16.90;63.82
43621;BME280;29213;50.770;7.298;2023-05-22T09:08:06;100709.13;;;17.18;63.33
43621;BME280;29213;50.770;7.298;2023-05-22T09:10:34;100709.78;;;17.33;62.68
43621;BME280;29213;50.770;7.298;2023-05-22T09:13:04;100702.72;;;17.53;62.76
43621;BME280;29213;50.770;7.298;2023-05-22T09:15:32;100648.47;;;17.22;62.38
43621;BME280;29213;50.770;7.298;2023-05-22T09:18:01;100673.75;;;17.41;62.34
43621;BME280;29213;50.770;7.298;2023-05-22T09:20:27;100703.34;;;17.82;61.78
43621;BME280;29213;50.770;7.298;2023-05-22T09:22:52;100638.94;;;17.46;61.29
43621;BME280;29213;50.770;7.298;2023-05-22T09:25:19;100707.03;;;18.01;61.30
43621;BME280;29213;50.770;7.298;2023-05-22T09:27:46;100697.91;;;18.09;61.86
43621;BME280;29213;50.770;7.298;2023-05-22T09:30:21;100701.19;;;18.24;60.92
43621;BME280;29213;50.770;7.298;2023-05-22T09:32:49;100639.88;;;17.99;60.21
43621;BME280;29213;50.770;7.298;2023-05-22T09:35:15;100661.53;;;18.32;58.91
43621;BME280;29213;50.770;7.298;2023-05-22T09:37:40;100699.63;;;18.55;59.47
43621;BME280;29213;50.770;7.298;2023-05-22T09:40:07;100672.09;;;18.40;59.78
43621;BME280;29213;50.770;7.298;2023-05-22T09:42:33;100659.63;;;18.39;59.66
43621;BME280;29213;50.770;7.298;2023-05-22T09:45:06;100697.09;;;18.67;59.07
43621;BME280;29213;50.770;7.298;2023-05-22T09:47:33;100666.00;;;18.58;58.91
43621;BME280;29213;50.770;7.298;2023-05-22T09:50:01;100676.25;;;18.81;58.91
43621;BME280;29213;50.770;7.298;2023-05-22T09:52:32;100684.53;;;18.87;59.35
43621;BME280;29213;50.770;7.298;2023-05-22T09:54:57;100699.63;;;18.94;58.90
43621;BME280;29213;50.770;7.298;2023-05-22T09:57:25;100703.13;;;18.95;57.20
43621;BME280;29213;50.770;7.298;2023-05-22T09:59:53;100658.16;;;18.57;57.71
43621;BME280;29213;50.770;7.298;2023-05-22T10:02:24;100697.81;;;18.88;57.20
43621;BME280;29213;50.770;7.298;2023-05-22T10:04:50;100687.38;;;18.99;57.31
43621;BME280;29213;50.770;7.298;2023-05-22T10:07:31;100691.44;;;19.08;56.79
43621;BME280;29213;50.770;7.298;2023-05-22T10:10:03;100697.84;;;19.14;56.27
43621;BME280;29213;50.770;7.298;2023-05-22T10:12:32;100697.09;;;19.32;56.64
43621;BME280;29213;50.770;7.298;2023-05-22T10:15:00;100658.88;;;19.28;55.80
43621;BME280;29213;50.770;7.298;2023-05-22T10:17:27;100696.66;;;19.60;55.08
43621;BME280;29213;50.770;7.298;2023-05-22T10:19:56;100683.66;;;19.51;54.59
43621;BME280;29213;50.770;7.298;2023-05-22T10:22:21;100639.81;;;19.23;54.85
43621;BME280;29213;50.770;7.298;2023-05-22T10:24:47;100683.53;;;19.64;54.92
43621;BME280;29213;50.770;7.298;2023-05-22T10:27:14;100662.81;;;19.58;54.77
43621;BME280;29213;50.770;7.298;2023-05-22T10:29:45;100676.09;;;19.59;54.51
43621;BME280;29213;50.770;7.298;2023-05-22T10:32:20;100703.28;;;19.83;55.02
43621;BME280;29213;50.770;7.298;2023-05-22T10:34:56;100702.41;;;19.89;54.25
43621;BME280;29213;50.770;7.298;2023-05-22T10:37:50;100705.56;;;20.05;53.56
43621;BME280;29213;50.770;7.298;2023-05-22T10:40:30;100650.31;;;19.82;52.66
43621;BME280;29213;50.770;7.298;2023-05-22T10:43:00;100699.41;;;19.98;53.34
43621;BME280;29213;50.770;7.298;2023-05-22T10:45:29;100701.91;;;19.99;53.08
43621;BME280;29213;50.770;7.298;2023-05-22T10:48:08;100687.06;;;20.02;52.44
43621;BME280;29213;50.770;7.298;2023-05-22T10:50:37;100699.97;;;20.25;52.73
43621;BME280;29213;50.770;7.298;2023-05-22T10:53:25;100711.91;;;20.36;52.29
43621;BME280;29213;50.770;7.298;2023-05-22T10:55:51;100697.84;;;20.46;52.10
43621;BME280;29213;50.770;7.298;2023-05-22T10:58:24;100595.28;;;19.76;52.11
43621;BME280;29213;50.770;7.298;2023-05-22T11:01:10;100699.81;;;20.39;52.02
43621;BME280;29213;50.770;7.298;2023-05-22T11:11:40;100668.56;;;20.06;51.03
43621;BME280;29213;50.770;7.298;2023-05-22T11:14:06;100654.97;;;20.12;51.51
43621;BME280;29213;50.770;7.298;2023-05-22T11:16:32;100674.78;;;20.44;51.43
43621;BME280;29213;50.770;7.298;2023-05-22T11:19:08;100692.50;;;20.58;50.28
43621;BME280;29213;50.770;7.298;2023-05-22T11:21:41;100688.09;;;20.57;50.37
43621;BME280;29213;50.770;7.298;2023-05-22T11:24:07;100698.44;;;20.79;50.95
43621;BME280;29213;50.770;7.298;2023-05-22T11:26:32;100643.78;;;20.58;49.56
43621;BME280;29213;50.770;7.298;2023-05-22T11:28:58;100624.25;;;20.56;49.71
43621;BME280;29213;50.770;7.298;2023-05-22T11:31:24;100658.34;;;20.88;49.70
43621;BME280;29213;50.770;7.298;2023-05-22T11:33:52;100688.31;;;21.17;49.19
43621;BME280;29213;50.770;7.298;2023-05-22T11:36:18;100629.44;;;20.58;48.82
43621;BME280;29213;50.770;7.298;2023-05-22T11:38:43;100635.91;;;20.68;49.54
43621;BME280;29213;50.770;7.298;2023-05-22T11:41:09;100670.28;;;20.99;49.60
43621;BME280;29213;50.770;7.298;2023-05-22T11:43:36;100643.06;;;20.81;49.78
43621;BME280;29213;50.770;7.298;2023-05-22T11:46:05;100676.88;;;21.03;48.89
43621;BME280;29213;50.770;7.298;2023-05-22T11:48:33;100650.56;;;20.79;49.34
43621;BME280;29213;50.770;7.298;2023-05-22T11:50:59;100664.13;;;20.91;49.47
43621;BME280;29213;50.770;7.298;2023-05-22T11:53:25;100585.25;;;20.33;48.92
43621;BME280;29213;50.770;7.298;2023-05-22T11:55:50;100639.38;;;20.76;49.22
43621;BME280;29213;50.770;7.298;2023-05-22T11:58:20;100605.44;;;20.61;49.07
43621;BME280;29213;50.770;7.298;2023-05-22T12:00:46;100668.53;;;21.04;48.75
43621;BME280;29213;50.770;7.298;2023-05-22T12:03:12;100655.59;;;21.06;49.11
43621;BME280;29213;50.770;7.298;2023-05-22T12:05:37;100645.56;;;20.95;48.70
43621;BME280;29213;50.770;7.298;2023-05-22T12:08:03;100658.28;;;21.18;48.86
43621;BME280;29213;50.770;7.298;2023-05-22T12:10:28;100593.50;;;20.81;48.96
43621;BME280;29213;50.770;7.298;2023-05-22T12:12:54;100592.59;;;20.87;48.56
43621;BME280;29213;50.770;7.298;2023-05-22T12:15:19;100654.19;;;21.28;48.87
43621;BME280;29213;50.770;7.298;2023-05-22T12:17:45;100604.47;;;20.98;48.71
43621;BME280;29213;50.770;7.298;2023-05-22T12:20:12;100607.53;;;20.90;48.84
43621;BME280;29213;50.770;7.298;2023-05-22T12:22:42;100663.84;;;21.12;48.67
43621;BME280;29213;50.770;7.298;2023-05-22T12:25:14;100647.00;;;20.98;48.95
43621;BME280;29213;50.770;7.298;2023-05-22T12:27:43;100625.00;;;20.75;48.77
43621;BME280;29213;50.770;7.298;2023-05-22T12:30:11;100642.81;;;20.83;49.23
43621;BME280;29213;50.770;7.298;2023-05-22T12:32:38;100650.50;;;20.86;49.42
43621;BME280;29213;50.770;7.298;2023-05-22T12:35:04;100602.81;;;20.54;49.40
43621;BME280;29213;50.770;7.298;2023-05-22T12:37:32;100653.94;;;20.75;49.38
43621;BME280;29213;50.770;7.298;2023-05-22T12:39:58;100537.91;;;19.93;49.57
43621;BME280;29213;50.770;7.298;2023-05-22T12:42:25;100604.88;;;20.28;50.06
43621;BME280;29213;50.770;7.298;2023-05-22T12:44:52;100624.19;;;20.44;49.79
43621;BME280;29213;50.770;7.298;2023-05-22T12:47:18;100648.88;;;20.66;50.00
43621;BME280;29213;50.770;7.298;2023-05-22T12:49:44;100623.03;;;20.52;50.32
43621;BME280;29213;50.770;7.298;2023-05-22T12:52:09;100597.28;;;20.49;50.43
43621;BME280;29213;50.770;7.298;2023-05-22T12:54:35;100633.22;;;20.68;50.51
43621;BME280;29213;50.770;7.298;2023-05-22T12:57:00;100638.28;;;20.65;50.02
43621;BME280;29213;50.770;7.298;2023-05-22T12:59:26;100633.78;;;20.59;50.05
43621;BME280;29213;50.770;7.298;2023-05-22T13:01:51;100575.00;;;20.23;50.23
43621;BME280;29213;50.770;7.298;2023-05-22T13:04:17;100601.84;;;20.37;50.10
43621;BME280;29213;50.770;7.298;2023-05-22T13:06:42;100646.59;;;20.63;50.11
43621;BME280;29213;50.770;7.298;2023-05-22T13:09:07;100647.91;;;20.61;50.34
43621;BME280;29213;50.770;7.298;2023-05-22T13:11:33;100632.22;;;20.51;50.34